sensor_id;sensor_type;location;lat;lon;timestamp;P1;durP1;ratioP1;P2;durP2;ratioP2
20454;SDS011;10386;54.314;10.022;2023-02-16T00:02:28;80.03;;;30.80;;
20454;SDS011;10386;54.314;10.022;2023-02-16T00:04:55;78.53;;;30.10;;
20454;SDS011;10386;54.314;10.022;2023-02-16T00:07:21;72.83;;;32.07;;
20454;SDS011;10386;54.314;10.022;2023-02-16T00:09:48;77.10;;;30.03;;
20454;SDS011;10386;54.314;10.022;2023-02-16T00:12:16;77.87;;;30.73;;
20454;SDS011;10386;54.314;10.022;2023-02-16T00:15:13;71.40;;;28.57;;
20454;SDS011;10386;54.314;10.022;2023-02-16T00:17:43;71.50;;;30.00;;
20454;SDS011;10386;54.314;10.022;2023-02-16T00:20:13;70.70;;;30.40;;
20454;SDS011;10386;54.314;10.022;2023-02-16T00:22:41;71.20;;;30.20;;
20454;SDS011;10386;54.314;10.022;2023-02-16T00:25:08;71.57;;;31.70;;
20454;SDS011;10386;54.314;10.022;2023-02-16T00:27:36;74.77;;;30.67;;
20454;SDS011;10386;54.314;10.022;2023-02-16T00:30:13;71.47;;;27.77;;
20454;SDS011;10386;54.314;10.022;2023-02-16T00:32:42;76.47;;;30.57;;
20454;SDS011;10386;54.314;10.022;2023-02-16T00:35:15;71.13;;;29.80;;
20454;SDS011;10386;54.314;10.022;2023-02-16T00:37:43;75.97;;;30.23;;
20454;SDS011;10386;54.314;10.022;2023-02-16T00:40:10;81.20;;;30.87;;
20454;SDS011;10386;54.314;10.022;2023-02-16T00:42:38;73.47;;;30.43;;
20454;SDS011;10386;54.314;10.022;2023-02-16T00:45:05;77.23;;;30.90;;
20454;SDS011;10386;54.314;10.022;2023-02-16T00:47:41;77.23;;;29.87;;
20454;SDS011;10386;54.314;10.022;2023-02-16T00:52:45;80.90;;;31.33;;
20454;SDS011;10386;54.314;10.022;2023-02-16T00:57:48;75.93;;;30.30;;
20454;SDS011;10386;54.314;10.022;2023-02-16T01:00:50;83.50;;;32.53;;
20454;SDS011;10386;54.314;10.022;2023-02-16T01:03:23;80.87;;;31.77;;
20454;SDS011;10386;54.314;10.022;2023-02-16T01:05:51;80.17;;;32.50;;
20454;SDS011;10386;54.314;10.022;2023-02-16T01:08:37;82.60;;;30.87;;
20454;SDS011;10386;54.314;10.022;2023-02-16T01:11:22;81.27;;;32.20;;
20454;SDS011;10386;54.314;10.022;2023-02-16T01:13:49;85.77;;;32.30;;
20454;SDS011;10386;54.314;10.022;2023-02-16T01:16:18;73.47;;;32.17;;
20454;SDS011;10386;54.314;10.022;2023-02-16T01:18:51;85.73;;;34.40;;
20454;SDS011;10386;54.314;10.022;2023-02-16T01:21:19;86.03;;;34.40;;
20454;SDS011;10386;54.314;10.022;2023-02-16T01:23:47;82.83;;;33.50;;
20454;SDS011;10386;54.314;10.022;2023-02-16T01:26:15;73.17;;;32.97;;
20454;SDS011;10386;54.314;10.022;2023-02-16T01:28:43;80.07;;;33.03;;
20454;SDS011;10386;54.314;10.022;2023-02-16T01:31:11;88.10;;;33.70;;
20454;SDS011;10386;54.314;10.022;2023-02-16T01:33:39;84.17;;;33.33;;
20454;SDS011;10386;54.314;10.022;2023-02-16T01:36:49;95.50;;;35.13;;
20454;SDS011;10386;54.314;10.022;2023-02-16T01:38:59;81.87;;;31.60;;
20454;SDS011;10386;54.314;10.022;2023-02-16T01:44:24;83.20;;;33.80;;
20454;SDS011;10386;54.314;10.022;2023-02-16T01:49:37;79.17;;;32.83;;
20454;SDS011;10386;54.314;10.022;2023-02-16T01:52:48;80.67;;;32.53;;
20454;SDS011;10386;54.314;10.022;2023-02-16T02:00:27;86.27;;;33.03;;
20454;SDS011;10386;54.314;10.022;2023-02-16T02:03:15;91.43;;;33.50;;
20454;SDS011;10386;54.314;10.022;2023-02-16T02:06:06;86.47;;;33.17;;
20454;SDS011;10386;54.314;10.022;2023-02-16T02:11:06;84.50;;;33.43;;
20454;SDS011;10386;54.314;10.022;2023-02-16T02:13:41;93.43;;;34.37;;
20454;SDS011;10386;54.314;10.022;2023-02-16T02:16:21;86.40;;;33.73;;
20454;SDS011;10386;54.314;10.022;2023-02-16T02:18:49;83.27;;;32.27;;
20454;SDS011;10386;54.314;10.022;2023-02-16T02:35:28;89.17;;;35.33;;
20454;SDS011;10386;54.314;10.022;2023-02-16T02:44:13;94.57;;;33.80;;
20454;SDS011;10386;54.314;10.022;2023-02-16T02:46:46;86.30;;;34.90;;
20454;SDS011;10386;54.314;10.022;2023-02-16T02:49:14;91.23;;;35.30;;
20454;SDS011;10386;54.314;10.022;2023-02-16T02:51:41;96.73;;;35.07;;
20454;SDS011;10386;54.314;10.022;2023-02-16T02:57:03;83.97;;;35.33;;
20454;SDS011;10386;54.314;10.022;2023-02-16T03:00:28;83.80;;;34.80;;
20454;SDS011;10386;54.314;10.022;2023-02-16T03:03:09;94.43;;;36.67;;
20454;SDS011;10386;54.314;10.022;2023-02-16T03:05:40;89.27;;;37.47;;
20454;SDS011;10386;54.314;10.022;2023-02-16T03:08:12;89.53;;;34.93;;
20454;SDS011;10386;54.314;10.022;2023-02-16T03:10:46;102.40;;;39.87;;
20454;SDS011;10386;54.314;10.022;2023-02-16T03:13:38;97.07;;;40.57;;
20454;SDS011;10386;54.314;10.022;2023-02-16T03:16:58;110.27;;;40.60;;
20454;SDS011;10386;54.314;10.022;2023-02-16T03:19:07;107.03;;;39.93;;
20454;SDS011;10386;54.314;10.022;2023-02-16T03:21:54;115.43;;;41.73;;
20454;SDS011;10386;54.314;10.022;2023-02-16T03:24:41;104.73;;;39.47;;
20454;SDS011;10386;54.314;10.022;2023-02-16T03:27:27;115.37;;;40.07;;
20454;SDS011;10386;54.314;10.022;2023-02-16T03:30:16;97.57;;;38.00;;
20454;SDS011;10386;54.314;10.022;2023-02-16T03:32:44;102.10;;;39.17;;
20454;SDS011;10386;54.314;10.022;2023-02-16T03:35:12;87.47;;;35.53;;
20454;SDS011;10386;54.314;10.022;2023-02-16T03:37:39;98.03;;;37.67;;
20454;SDS011;10386;54.314;10.022;2023-02-16T03:40:08;98.20;;;39.43;;
20454;SDS011;10386;54.314;10.022;2023-02-16T03:42:59;93.20;;;37.27;;
20454;SDS011;10386;54.314;10.022;2023-02-16T03:45:28;102.97;;;37.47;;
20454;SDS011;10386;54.314;10.022;2023-02-16T03:47:56;90.57;;;37.67;;
20454;SDS011;10386;54.314;10.022;2023-02-16T03:50:23;96.47;;;38.23;;
20454;SDS011;10386;54.314;10.022;2023-02-16T03:52:52;103.83;;;38.57;;
20454;SDS011;10386;54.314;10.022;2023-02-16T03:55:36;99.17;;;38.53;;
20454;SDS011;10386;54.314;10.022;2023-02-16T03:58:05;101.03;;;38.80;;
20454;SDS011;10386;54.314;10.022;2023-02-16T04:00:34;103.53;;;38.90;;
20454;SDS011;10386;54.314;10.022;2023-02-16T04:03:02;100.37;;;39.27;;
20454;SDS011;10386;54.314;10.022;2023-02-16T04:05:30;111.53;;;40.33;;
20454;SDS011;10386;54.314;10.022;2023-02-16T04:07:57;106.57;;;40.50;;
20454;SDS011;10386;54.314;10.022;2023-02-16T04:10:24;107.20;;;41.40;;
20454;SDS011;10386;54.314;10.022;2023-02-16T04:12:50;121.67;;;43.23;;
20454;SDS011;10386;54.314;10.022;2023-02-16T04:15:18;106.30;;;41.83;;
20454;SDS011;10386;54.314;10.022;2023-02-16T04:17:48;105.37;;;39.87;;
20454;SDS011;10386;54.314;10.022;2023-02-16T04:20:16;116.17;;;43.60;;
20454;SDS011;10386;54.314;10.022;2023-02-16T04:22:45;114.17;;;41.40;;
20454;SDS011;10386;54.314;10.022;2023-02-16T04:25:12;112.13;;;43.03;;
20454;SDS011;10386;54.314;10.022;2023-02-16T04:27:40;124.63;;;44.57;;
20454;SDS011;10386;54.314;10.022;2023-02-16T04:30:10;125.50;;;44.83;;
20454;SDS011;10386;54.314;10.022;2023-02-16T04:32:39;120.10;;;44.17;;
20454;SDS011;10386;54.314;10.022;2023-02-16T04:35:06;125.07;;;44.53;;
20454;SDS011;10386;54.314;10.022;2023-02-16T04:37:33;130.77;;;46.07;;
20454;SDS011;10386;54.314;10.022;2023-02-16T04:40:00;121.33;;;47.03;;
20454;SDS011;10386;54.314;10.022;2023-02-16T04:42:27;122.37;;;46.13;;
20454;SDS011;10386;54.314;10.022;2023-02-16T04:44:53;116.47;;;45.87;;
20454;SDS011;10386;54.314;10.022;2023-02-16T04:47:20;134.70;;;47.53;;
20454;SDS011;10386;54.314;10.022;2023-02-16T04:49:48;130.80;;;47.67;;
20454;SDS011;10386;54.314;10.022;2023-02-16T04:52:15;135.10;;;48.17;;
20454;SDS011;10386;54.314;10.022;2023-02-16T04:54:42;124.97;;;47.83;;
20454;SDS011;10386;54.314;10.022;2023-02-16T04:57:10;127.87;;;46.93;;
20454;SDS011;10386;54.314;10.022;2023-02-16T04:59:37;133.13;;;46.73;;
20454;SDS011;10386;54.314;10.022;2023-02-16T05:02:04;124.50;;;44.47;;
20454;SDS011;10386;54.314;10.022;2023-02-16T05:04:30;117.00;;;44.53;;
20454;SDS011;10386;54.314;10.022;2023-02-16T05:06:57;125.00;;;47.47;;
20454;SDS011;10386;54.314;10.022;2023-02-16T05:09:24;115.17;;;45.50;;
20454;SDS011;10386;54.314;10.022;2023-02-16T05:11:51;121.93;;;44.30;;
20454;SDS011;10386;54.314;10.022;2023-02-16T05:14:36;122.87;;;45.23;;
20454;SDS011;10386;54.314;10.022;2023-02-16T05:17:17;122.43;;;43.50;;
20454;SDS011;10386;54.314;10.022;2023-02-16T05:19:50;122.90;;;44.23;;
20454;SDS011;10386;54.314;10.022;2023-02-16T05:22:18;118.73;;;44.33;;
20454;SDS011;10386;54.314;10.022;2023-02-16T05:24:46;122.03;;;43.30;;
20454;SDS011;10386;54.314;10.022;2023-02-16T05:27:20;127.27;;;46.03;;
20454;SDS011;10386;54.314;10.022;2023-02-16T05:29:49;128.30;;;47.07;;
20454;SDS011;10386;54.314;10.022;2023-02-16T05:32:15;121.97;;;45.30;;
20454;SDS011;10386;54.314;10.022;2023-02-16T05:34:42;117.73;;;46.23;;
20454;SDS011;10386;54.314;10.022;2023-02-16T05:37:12;111.97;;;44.10;;
20454;SDS011;10386;54.314;10.022;2023-02-16T05:39:41;117.30;;;44.77;;
20454;SDS011;10386;54.314;10.022;2023-02-16T05:42:08;123.53;;;46.53;;
20454;SDS011;10386;54.314;10.022;2023-02-16T05:44:35;115.70;;;44.00;;
20454;SDS011;10386;54.314;10.022;2023-02-16T05:47:02;132.73;;;46.10;;
20454;SDS011;10386;54.314;10.022;2023-02-16T05:49:29;123.00;;;47.13;;
20454;SDS011;10386;54.314;10.022;2023-02-16T05:51:56;121.60;;;46.57;;
20454;SDS011;10386;54.314;10.022;2023-02-16T05:54:23;126.33;;;46.50;;
20454;SDS011;10386;54.314;10.022;2023-02-16T05:56:49;128.07;;;46.53;;
20454;SDS011;10386;54.314;10.022;2023-02-16T05:59:17;126.00;;;46.67;;
20454;SDS011;10386;54.314;10.022;2023-02-16T06:01:44;118.57;;;45.60;;
20454;SDS011;10386;54.314;10.022;2023-02-16T06:04:16;126.97;;;47.63;;
20454;SDS011;10386;54.314;10.022;2023-02-16T06:06:43;124.93;;;47.13;;
20454;SDS011;10386;54.314;10.022;2023-02-16T06:09:10;131.00;;;47.17;;
20454;SDS011;10386;54.314;10.022;2023-02-16T06:11:37;122.30;;;45.83;;
20454;SDS011;10386;54.314;10.022;2023-02-16T06:14:06;115.43;;;45.57;;
20454;SDS011;10386;54.314;10.022;2023-02-16T06:16:38;120.77;;;47.27;;
20454;SDS011;10386;54.314;10.022;2023-02-16T06:19:07;118.93;;;47.23;;
20454;SDS011;10386;54.314;10.022;2023-02-16T06:21:34;125.10;;;46.97;;
20454;SDS011;10386;54.314;10.022;2023-02-16T06:24:04;134.00;;;47.53;;
20454;SDS011;10386;54.314;10.022;2023-02-16T06:26:31;131.53;;;47.70;;
20454;SDS011;10386;54.314;10.022;2023-02-16T06:28:58;138.20;;;48.70;;
20454;SDS011;10386;54.314;10.022;2023-02-16T06:31:25;127.90;;;47.90;;
20454;SDS011;10386;54.314;10.022;2023-02-16T06:33:52;123.90;;;47.47;;
20454;SDS011;10386;54.314;10.022;2023-02-16T06:36:19;135.53;;;48.10;;
20454;SDS011;10386;54.314;10.022;2023-02-16T06:38:46;131.30;;;48.13;;
20454;SDS011;10386;54.314;10.022;2023-02-16T06:41:14;126.50;;;46.13;;
20454;SDS011;10386;54.314;10.022;2023-02-16T06:44:00;132.73;;;46.67;;
20454;SDS011;10386;54.314;10.022;2023-02-16T06:46:28;136.23;;;48.93;;
20454;SDS011;10386;54.314;10.022;2023-02-16T06:48:55;131.00;;;48.70;;
20454;SDS011;10386;54.314;10.022;2023-02-16T06:51:22;127.83;;;48.30;;
20454;SDS011;10386;54.314;10.022;2023-02-16T06:53:49;124.60;;;47.07;;
20454;SDS011;10386;54.314;10.022;2023-02-16T06:56:15;127.90;;;49.43;;
20454;SDS011;10386;54.314;10.022;2023-02-16T06:58:42;123.97;;;46.20;;
20454;SDS011;10386;54.314;10.022;2023-02-16T07:01:09;132.03;;;48.17;;
20454;SDS011;10386;54.314;10.022;2023-02-16T07:03:37;130.90;;;47.87;;
20454;SDS011;10386;54.314;10.022;2023-02-16T07:06:04;136.97;;;49.47;;
20454;SDS011;10386;54.314;10.022;2023-02-16T07:08:31;126.30;;;47.67;;
20454;SDS011;10386;54.314;10.022;2023-02-16T07:10:57;122.97;;;46.63;;
20454;SDS011;10386;54.314;10.022;2023-02-16T07:13:24;130.90;;;48.73;;
20454;SDS011;10386;54.314;10.022;2023-02-16T07:15:51;128.87;;;49.60;;
20454;SDS011;10386;54.314;10.022;2023-02-16T07:18:18;122.03;;;47.80;;
20454;SDS011;10386;54.314;10.022;2023-02-16T07:20:44;130.27;;;49.83;;
20454;SDS011;10386;54.314;10.022;2023-02-16T07:23:12;131.00;;;48.30;;
20454;SDS011;10386;54.314;10.022;2023-02-16T07:25:39;127.80;;;47.80;;
20454;SDS011;10386;54.314;10.022;2023-02-16T07:28:06;127.87;;;47.60;;
20454;SDS011;10386;54.314;10.022;2023-02-16T07:30:32;128.20;;;49.27;;
20454;SDS011;10386;54.314;10.022;2023-02-16T07:32:59;130.03;;;48.00;;
20454;SDS011;10386;54.314;10.022;2023-02-16T07:35:26;128.70;;;48.77;;
20454;SDS011;10386;54.314;10.022;2023-02-16T07:37:52;130.60;;;48.17;;
20454;SDS011;10386;54.314;10.022;2023-02-16T07:40:19;124.10;;;47.37;;
20454;SDS011;10386;54.314;10.022;2023-02-16T07:42:46;120.60;;;48.33;;
20454;SDS011;10386;54.314;10.022;2023-02-16T07:45:13;132.10;;;48.07;;
20454;SDS011;10386;54.314;10.022;2023-02-16T07:47:40;126.87;;;47.37;;
20454;SDS011;10386;54.314;10.022;2023-02-16T07:50:06;129.50;;;48.37;;
20454;SDS011;10386;54.314;10.022;2023-02-16T07:52:33;126.03;;;47.40;;
20454;SDS011;10386;54.314;10.022;2023-02-16T07:55:00;130.73;;;47.90;;
20454;SDS011;10386;54.314;10.022;2023-02-16T07:57:27;127.90;;;47.07;;
20454;SDS011;10386;54.314;10.022;2023-02-16T07:59:55;120.30;;;48.37;;
20454;SDS011;10386;54.314;10.022;2023-02-16T08:02:22;123.03;;;48.07;;
20454;SDS011;10386;54.314;10.022;2023-02-16T08:04:49;127.83;;;47.37;;
20454;SDS011;10386;54.314;10.022;2023-02-16T08:07:18;124.87;;;46.63;;
20454;SDS011;10386;54.314;10.022;2023-02-16T08:09:45;118.40;;;45.23;;
20454;SDS011;10386;54.314;10.022;2023-02-16T08:12:13;124.13;;;47.80;;
20454;SDS011;10386;54.314;10.022;2023-02-16T08:14:41;114.23;;;45.73;;
20454;SDS011;10386;54.314;10.022;2023-02-16T08:17:09;119.90;;;46.60;;
20454;SDS011;10386;54.314;10.022;2023-02-16T08:19:36;124.13;;;47.37;;
20454;SDS011;10386;54.314;10.022;2023-02-16T08:22:03;123.87;;;45.17;;
20454;SDS011;10386;54.314;10.022;2023-02-16T08:24:31;109.57;;;43.80;;
20454;SDS011;10386;54.314;10.022;2023-02-16T08:26:59;119.17;;;45.73;;
20454;SDS011;10386;54.314;10.022;2023-02-16T08:29:29;114.60;;;45.70;;
20454;SDS011;10386;54.314;10.022;2023-02-16T08:31:56;113.17;;;45.33;;
20454;SDS011;10386;54.314;10.022;2023-02-16T08:34:24;109.17;;;44.80;;
20454;SDS011;10386;54.314;10.022;2023-02-16T08:36:53;104.20;;;43.50;;
20454;SDS011;10386;54.314;10.022;2023-02-16T08:39:23;108.73;;;43.47;;
20454;SDS011;10386;54.314;10.022;2023-02-16T08:41:52;107.13;;;44.97;;
20454;SDS011;10386;54.314;10.022;2023-02-16T08:44:20;110.93;;;43.53;;
20454;SDS011;10386;54.314;10.022;2023-02-16T08:46:49;116.80;;;42.63;;
20454;SDS011;10386;54.314;10.022;2023-02-16T08:49:18;106.37;;;42.97;;
20454;SDS011;10386;54.314;10.022;2023-02-16T08:51:48;111.23;;;42.00;;
20454;SDS011;10386;54.314;10.022;2023-02-16T08:54:21;118.40;;;43.97;;
20454;SDS011;10386;54.314;10.022;2023-02-16T08:56:52;98.27;;;40.70;;
20454;SDS011;10386;54.314;10.022;2023-02-16T08:59:20;104.10;;;43.17;;
20454;SDS011;10386;54.314;10.022;2023-02-16T09:01:47;103.73;;;42.07;;
20454;SDS011;10386;54.314;10.022;2023-02-16T09:04:15;113.93;;;43.27;;
20454;SDS011;10386;54.314;10.022;2023-02-16T09:06:43;101.97;;;42.70;;
20454;SDS011;10386;54.314;10.022;2023-02-16T09:09:11;101.90;;;42.73;;
20454;SDS011;10386;54.314;10.022;2023-02-16T09:11:38;102.80;;;42.53;;
20454;SDS011;10386;54.314;10.022;2023-02-16T09:14:06;110.00;;;45.27;;
20454;SDS011;10386;54.314;10.022;2023-02-16T09:16:34;109.87;;;43.23;;
20454;SDS011;10386;54.314;10.022;2023-02-16T09:19:05;107.63;;;44.23;;
20454;SDS011;10386;54.314;10.022;2023-02-16T09:21:32;110.20;;;44.80;;
20454;SDS011;10386;54.314;10.022;2023-02-16T09:24:03;105.57;;;42.67;;
20454;SDS011;10386;54.314;10.022;2023-02-16T09:26:31;107.03;;;43.57;;
20454;SDS011;10386;54.314;10.022;2023-02-16T09:29:00;105.23;;;42.47;;
20454;SDS011;10386;54.314;10.022;2023-02-16T09:31:28;102.27;;;42.47;;
20454;SDS011;10386;54.314;10.022;2023-02-16T09:34:22;103.40;;;42.10;;
20454;SDS011;10386;54.314;10.022;2023-02-16T09:36:49;104.03;;;42.40;;
20454;SDS011;10386;54.314;10.022;2023-02-16T09:39:16;109.90;;;44.03;;
20454;SDS011;10386;54.314;10.022;2023-02-16T09:44:23;102.80;;;40.47;;
20454;SDS011;10386;54.314;10.022;2023-02-16T09:47:05;98.97;;;40.60;;
20454;SDS011;10386;54.314;10.022;2023-02-16T09:49:41;102.60;;;41.70;;
20454;SDS011;10386;54.314;10.022;2023-02-16T09:52:28;95.97;;;41.70;;
20454;SDS011;10386;54.314;10.022;2023-02-16T09:55:04;99.37;;;41.87;;
20454;SDS011;10386;54.314;10.022;2023-02-16T10:03:10;96.90;;;42.20;;
20454;SDS011;10386;54.314;10.022;2023-02-16T10:05:51;99.63;;;40.50;;
20454;SDS011;10386;54.314;10.022;2023-02-16T10:08:26;100.47;;;41.80;;
20454;SDS011;10386;54.314;10.022;2023-02-16T10:11:01;102.47;;;42.60;;
20454;SDS011;10386;54.314;10.022;2023-02-16T10:13:53;101.57;;;41.70;;
20454;SDS011;10386;54.314;10.022;2023-02-16T10:16:29;94.67;;;42.40;;
20454;SDS011;10386;54.314;10.022;2023-02-16T10:19:00;95.00;;;41.87;;
20454;SDS011;10386;54.314;10.022;2023-02-16T10:21:33;104.30;;;40.00;;
20454;SDS011;10386;54.314;10.022;2023-02-16T10:24:04;96.77;;;40.97;;
20454;SDS011;10386;54.314;10.022;2023-02-16T10:26:42;92.90;;;40.13;;
20454;SDS011;10386;54.314;10.022;2023-02-16T10:29:14;92.03;;;38.33;;
20454;SDS011;10386;54.314;10.022;2023-02-16T10:32:03;97.17;;;39.23;;
20454;SDS011;10386;54.314;10.022;2023-02-16T10:43:36;96.93;;;38.83;;
20454;SDS011;10386;54.314;10.022;2023-02-16T10:46:09;95.73;;;40.40;;
20454;SDS011;10386;54.314;10.022;2023-02-16T10:48:42;90.23;;;39.77;;
20454;SDS011;10386;54.314;10.022;2023-02-16T10:51:11;100.03;;;41.97;;
20454;SDS011;10386;54.314;10.022;2023-02-16T10:53:46;105.93;;;41.13;;
20454;SDS011;10386;54.314;10.022;2023-02-16T10:56:22;101.07;;;40.00;;
20454;SDS011;10386;54.314;10.022;2023-02-16T10:58:50;104.03;;;42.57;;
20454;SDS011;10386;54.314;10.022;2023-02-16T11:01:18;97.07;;;40.33;;
20454;SDS011;10386;54.314;10.022;2023-02-16T11:03:52;105.03;;;41.37;;
20454;SDS011;10386;54.314;10.022;2023-02-16T11:06:20;95.73;;;40.77;;
20454;SDS011;10386;54.314;10.022;2023-02-16T11:08:52;95.57;;;40.60;;
20454;SDS011;10386;54.314;10.022;2023-02-16T11:11:28;104.33;;;42.70;;
20454;SDS011;10386;54.314;10.022;2023-02-16T11:14:02;96.63;;;40.70;;
20454;SDS011;10386;54.314;10.022;2023-02-16T11:16:43;98.10;;;39.93;;
20454;SDS011;10386;54.314;10.022;2023-02-16T11:19:19;106.23;;;41.90;;
20454;SDS011;10386;54.314;10.022;2023-02-16T11:21:52;106.67;;;42.70;;
20454;SDS011;10386;54.314;10.022;2023-02-16T11:24:27;111.77;;;42.73;;
20454;SDS011;10386;54.314;10.022;2023-02-16T11:29:28;112.20;;;44.13;;
20454;SDS011;10386;54.314;10.022;2023-02-16T11:31:57;112.07;;;44.67;;
20454;SDS011;10386;54.314;10.022;2023-02-16T11:34:29;118.30;;;43.77;;
20454;SDS011;10386;54.314;10.022;2023-02-16T11:37:09;128.27;;;46.07;;
20454;SDS011;10386;54.314;10.022;2023-02-16T11:40:00;122.90;;;45.50;;
20454;SDS011;10386;54.314;10.022;2023-02-16T11:45:06;128.17;;;46.57;;
20454;SDS011;10386;54.314;10.022;2023-02-16T11:47:38;130.23;;;47.60;;
20454;SDS011;10386;54.314;10.022;2023-02-16T11:50:21;131.87;;;48.73;;
20454;SDS011;10386;54.314;10.022;2023-02-16T11:53:37;135.47;;;48.00;;
20454;SDS011;10386;54.314;10.022;2023-02-16T11:55:51;119.40;;;46.13;;
20454;SDS011;10386;54.314;10.022;2023-02-16T11:59:06;129.20;;;47.10;;
20454;SDS011;10386;54.314;10.022;2023-02-16T12:10:02;146.97;;;51.40;;
20454;SDS011;10386;54.314;10.022;2023-02-16T12:12:30;139.67;;;48.93;;
20454;SDS011;10386;54.314;10.022;2023-02-16T12:20:50;131.33;;;47.03;;
20454;SDS011;10386;54.314;10.022;2023-02-16T12:23:35;133.53;;;49.50;;
20454;SDS011;10386;54.314;10.022;2023-02-16T12:31:33;137.40;;;49.10;;
20454;SDS011;10386;54.314;10.022;2023-02-16T12:39:46;133.40;;;50.07;;
20454;SDS011;10386;54.314;10.022;2023-02-16T12:42:34;140.63;;;50.67;;
20454;SDS011;10386;54.314;10.022;2023-02-16T12:45:13;135.20;;;48.40;;
20454;SDS011;10386;54.314;10.022;2023-02-16T12:50:20;129.60;;;49.07;;
20454;SDS011;10386;54.314;10.022;2023-02-16T12:52:58;131.67;;;47.57;;
20454;SDS011;10386;54.314;10.022;2023-02-16T12:55:27;124.73;;;48.73;;
20454;SDS011;10386;54.314;10.022;2023-02-16T13:00:53;124.57;;;47.50;;
20454;SDS011;10386;54.314;10.022;2023-02-16T13:11:18;137.80;;;47.17;;
20454;SDS011;10386;54.314;10.022;2023-02-16T13:13:46;130.33;;;47.93;;
20454;SDS011;10386;54.314;10.022;2023-02-16T13:16:25;114.93;;;46.30;;
20454;SDS011;10386;54.314;10.022;2023-02-16T13:19:15;120.03;;;47.17;;
20454;SDS011;10386;54.314;10.022;2023-02-16T13:30:31;123.07;;;46.20;;
20454;SDS011;10386;54.314;10.022;2023-02-16T13:33:15;129.60;;;46.50;;
20454;SDS011;10386;54.314;10.022;2023-02-16T13:39:04;121.67;;;46.97;;
20454;SDS011;10386;54.314;10.022;2023-02-16T13:47:02;121.73;;;45.70;;
20454;SDS011;10386;54.314;10.022;2023-02-16T13:49:34;125.27;;;45.40;;
20454;SDS011;10386;54.314;10.022;2023-02-16T13:52:05;135.27;;;47.23;;
20454;SDS011;10386;54.314;10.022;2023-02-16T13:54:34;122.90;;;46.83;;
20454;SDS011;10386;54.314;10.022;2023-02-16T13:57:09;115.50;;;46.67;;
20454;SDS011;10386;54.314;10.022;2023-02-16T14:02:11;128.77;;;48.60;;
20454;SDS011;10386;54.314;10.022;2023-02-16T14:07:30;120.17;;;45.33;;
20454;SDS011;10386;54.314;10.022;2023-02-16T14:10:01;129.30;;;46.83;;
20454;SDS011;10386;54.314;10.022;2023-02-16T14:12:28;126.27;;;47.87;;
20454;SDS011;10386;54.314;10.022;2023-02-16T14:15:02;126.17;;;45.20;;
20454;SDS011;10386;54.314;10.022;2023-02-16T14:17:33;131.20;;;48.33;;
20454;SDS011;10386;54.314;10.022;2023-02-16T14:20:03;133.67;;;48.10;;
20454;SDS011;10386;54.314;10.022;2023-02-16T14:22:56;128.40;;;48.63;;
20454;SDS011;10386;54.314;10.022;2023-02-16T14:30:52;139.73;;;50.80;;
20454;SDS011;10386;54.314;10.022;2023-02-16T14:36:05;138.17;;;49.73;;
20454;SDS011;10386;54.314;10.022;2023-02-16T14:41:10;132.70;;;47.77;;
20454;SDS011;10386;54.314;10.022;2023-02-16T14:43:48;128.87;;;48.83;;
20454;SDS011;10386;54.314;10.022;2023-02-16T15:02:41;157.17;;;55.07;;
20454;SDS011;10386;54.314;10.022;2023-02-16T15:05:39;150.63;;;52.77;;
20454;SDS011;10386;54.314;10.022;2023-02-16T15:08:08;154.53;;;52.57;;
20454;SDS011;10386;54.314;10.022;2023-02-16T15:10:42;152.43;;;51.90;;
20454;SDS011;10386;54.314;10.022;2023-02-16T15:13:20;143.77;;;51.20;;
20454;SDS011;10386;54.314;10.022;2023-02-16T15:15:50;143.80;;;52.53;;
20454;SDS011;10386;54.314;10.022;2023-02-16T15:18:22;138.37;;;51.00;;
20454;SDS011;10386;54.314;10.022;2023-02-16T15:20:53;148.37;;;51.97;;
20454;SDS011;10386;54.314;10.022;2023-02-16T15:23:24;153.47;;;52.13;;
20454;SDS011;10386;54.314;10.022;2023-02-16T15:25:55;146.57;;;50.60;;
20454;SDS011;10386;54.314;10.022;2023-02-16T15:28:25;147.07;;;51.67;;
20454;SDS011;10386;54.314;10.022;2023-02-16T15:30:55;156.37;;;53.90;;
20454;SDS011;10386;54.314;10.022;2023-02-16T15:33:26;145.53;;;52.30;;
20454;SDS011;10386;54.314;10.022;2023-02-16T15:35:59;151.23;;;53.90;;
20454;SDS011;10386;54.314;10.022;2023-02-16T15:38:32;141.80;;;50.33;;
20454;SDS011;10386;54.314;10.022;2023-02-16T15:41:04;150.47;;;52.27;;
20454;SDS011;10386;54.314;10.022;2023-02-16T15:46:31;146.70;;;53.27;;
20454;SDS011;10386;54.314;10.022;2023-02-16T15:49:20;149.23;;;51.27;;
20454;SDS011;10386;54.314;10.022;2023-02-16T15:51:58;138.57;;;51.80;;
20454;SDS011;10386;54.314;10.022;2023-02-16T15:54:27;146.20;;;51.20;;
20454;SDS011;10386;54.314;10.022;2023-02-16T15:57:00;145.03;;;53.03;;
20454;SDS011;10386;54.314;10.022;2023-02-16T15:59:43;145.90;;;52.60;;
20454;SDS011;10386;54.314;10.022;2023-02-16T16:02:31;154.00;;;51.60;;
20454;SDS011;10386;54.314;10.022;2023-02-16T16:05:20;153.83;;;52.80;;
20454;SDS011;10386;54.314;10.022;2023-02-16T16:07:49;137.20;;;51.67;;
20454;SDS011;10386;54.314;10.022;2023-02-16T16:10:25;145.77;;;50.03;;
20454;SDS011;10386;54.314;10.022;2023-02-16T16:13:00;145.17;;;52.13;;
20454;SDS011;10386;54.314;10.022;2023-02-16T16:15:29;140.23;;;50.33;;
20454;SDS011;10386;54.314;10.022;2023-02-16T16:17:59;151.20;;;51.23;;
20454;SDS011;10386;54.314;10.022;2023-02-16T16:20:35;145.43;;;51.90;;
20454;SDS011;10386;54.314;10.022;2023-02-16T16:25:44;140.83;;;52.97;;
20454;SDS011;10386;54.314;10.022;2023-02-16T16:28:30;145.93;;;51.83;;
20454;SDS011;10386;54.314;10.022;2023-02-16T16:31:09;141.20;;;51.33;;
20454;SDS011;10386;54.314;10.022;2023-02-16T16:33:51;147.47;;;51.27;;
20454;SDS011;10386;54.314;10.022;2023-02-16T16:36:18;159.87;;;53.10;;
20454;SDS011;10386;54.314;10.022;2023-02-16T16:38:46;142.63;;;51.47;;
20454;SDS011;10386;54.314;10.022;2023-02-16T16:41:23;156.70;;;53.43;;
20454;SDS011;10386;54.314;10.022;2023-02-16T16:43:54;140.33;;;50.30;;
20454;SDS011;10386;54.314;10.022;2023-02-16T16:48:49;130.77;;;49.17;;
20454;SDS011;10386;54.314;10.022;2023-02-16T16:54:03;148.33;;;51.43;;
20454;SDS011;10386;54.314;10.022;2023-02-16T16:56:38;140.10;;;50.77;;
20454;SDS011;10386;54.314;10.022;2023-02-16T16:59:06;151.60;;;52.23;;
20454;SDS011;10386;54.314;10.022;2023-02-16T17:01:33;135.00;;;49.07;;
20454;SDS011;10386;54.314;10.022;2023-02-16T17:04:01;140.40;;;49.93;;
20454;SDS011;10386;54.314;10.022;2023-02-16T17:06:28;146.43;;;53.13;;
20454;SDS011;10386;54.314;10.022;2023-02-16T17:08:55;139.63;;;50.17;;
20454;SDS011;10386;54.314;10.022;2023-02-16T17:11:25;141.27;;;50.00;;